Terminal Aerodrome Forecast
Issued by NWS

Home | Current Version | Previous Version | Text Only | Print | Product List | Glossary On
Versions: 1 2 3 4 5 6 7 8 9 10 11 12 13 14 15 16 17 18 19 20 21 22 23 24 25 26 27
000
FTUS46 KLOX 020911 AAB
TAFOXR
TAF AMD
KOXR 020911Z 0209/0306 VRB03KT P6SM SCT008
     FM021100 VRB03KT P6SM OVC008
     FM021600 25006KT P6SM BKN017
     FM022000 26012KT P6SM SKC
     FM030500 VRB03KT P6SM SKC=

USA.gov is the U.S. government's official web portal to all federal, state and local government web resources and services.